createdAt,value
2023-03-13T00:11:48.793Z,8.60
2023-03-13T00:26:51.858Z,9.40
2023-03-13T00:41:55.218Z,8.70
2023-03-13T00:56:58.566Z,8.70
2023-03-13T01:12:01.925Z,8.90
2023-03-13T01:27:07.462Z,8.00
2023-03-13T01:42:10.719Z,8.00
2023-03-13T01:57:49.540Z,7.80
2023-03-13T02:12:54.027Z,6.70
2023-03-13T02:28:02.037Z,7.50
2023-03-13T02:43:14.231Z,9.20
2023-03-13T02:58:17.887Z,9.40
2023-03-13T03:13:21.394Z,10.50
2023-03-13T03:28:24.763Z,9.00
2023-03-13T03:43:28.382Z,10.30
2023-03-13T03:58:32.808Z,8.50
2023-03-13T04:13:50.591Z,10.00
2023-03-13T04:28:54.280Z,9.20
2023-03-13T04:44:09.893Z,10.30
2023-03-13T04:59:38.419Z,10.10
2023-03-13T05:14:59.926Z,11.90
2023-03-13T05:30:09.807Z,14.50
2023-03-13T05:45:33.007Z,28.20
2023-03-13T06:00:56.397Z,19.80
2023-03-13T06:16:18.070Z,20.10
2023-03-13T06:31:24.364Z,31.40
2023-03-13T06:46:27.805Z,26.00
2023-03-13T07:01:31.274Z,37.70
2023-03-13T07:16:34.558Z,22.70
2023-03-13T07:31:39.484Z,25.60
2023-03-13T07:46:42.633Z,71.10
2023-03-13T08:01:45.794Z,26.80
2023-03-13T08:16:49.019Z,31.50
2023-03-13T08:31:52.881Z,29.60
2023-03-13T08:46:57.106Z,33.20
2023-03-13T09:02:00.412Z,40.50
2023-03-13T09:17:04.717Z,35.30
2023-03-13T09:32:08.322Z,31.50
2023-03-13T09:47:31.673Z,30.60
2023-03-13T10:02:37.038Z,25.60
2023-03-13T10:17:40.478Z,28.00
2023-03-13T10:32:44.835Z,29.60
2023-03-13T10:48:14.983Z,23.00
2023-03-13T11:03:23.707Z,18.10
2023-03-13T11:18:40.030Z,32.10
2023-03-13T11:34:06.144Z,24.90
2023-03-13T11:49:26.870Z,21.20
2023-03-13T12:04:38.670Z,15.30
2023-03-13T12:20:09.995Z,14.90
2023-03-13T12:35:24.300Z,25.20
2023-03-13T12:50:46.319Z,15.00
2023-03-13T13:06:19.428Z,15.50
2023-03-13T13:21:26.784Z,13.40
2023-03-13T13:36:31.036Z,16.40
2023-03-13T13:52:06.515Z,14.70
2023-03-13T14:07:19.415Z,14.10
2023-03-13T14:22:22.631Z,14.50
2023-03-13T14:37:44.588Z,12.90
2023-03-13T14:53:05.352Z,12.80
2023-03-13T15:08:22.942Z,13.40
2023-03-13T15:23:26.477Z,10.00
2023-03-13T15:38:29.775Z,10.20
2023-03-13T15:53:37.786Z,11.60
2023-03-13T16:08:41.512Z,12.50
2023-03-13T16:23:44.953Z,12.60
2023-03-13T16:38:51.424Z,10.50
2023-03-13T16:53:56.593Z,13.80
2023-03-13T17:09:02.356Z,13.60
2023-03-13T17:24:07.770Z,12.40
2023-03-13T17:39:14.316Z,26.10
2023-03-13T17:54:19.281Z,19.00
2023-03-13T18:09:22.738Z,20.60
2023-03-13T18:24:26.481Z,20.70
2023-03-13T18:39:32.642Z,10.90
2023-03-13T18:54:35.950Z,16.30
2023-03-13T19:09:43.701Z,17.50
2023-03-13T19:24:47.853Z,11.10
2023-03-13T19:39:51.928Z,10.20
2023-03-13T19:54:56.235Z,11.50
2023-03-13T20:09:59.906Z,9.90
2023-03-13T20:25:04.773Z,13.70
2023-03-13T20:40:10.875Z,15.50
2023-03-13T20:55:14.121Z,12.60
2023-03-13T21:10:18.381Z,9.70
2023-03-13T21:25:22.087Z,7.90
2023-03-13T21:40:25.308Z,9.20
2023-03-13T21:55:28.492Z,10.00
2023-03-13T22:10:31.832Z,7.60
2023-03-13T22:25:39.289Z,7.80
2023-03-13T22:40:42.567Z,7.50
2023-03-13T22:55:45.697Z,7.10
2023-03-13T23:10:48.964Z,6.60
2023-03-13T23:25:52.045Z,6.70
2023-03-13T23:40:55.336Z,8.10
2023-03-13T23:55:58.795Z,6.40
